createdAt,value
2018-03-07T00:00:15.398Z,986.19
2018-03-07T00:00:41.504Z,986.2
2018-03-07T00:01:07.611Z,986.18
2018-03-07T00:01:33.713Z,986.18
2018-03-07T00:01:59.807Z,986.19
2018-03-07T00:02:25.915Z,986.18
2018-03-07T00:02:52.026Z,986.18
2018-03-07T00:03:18.128Z,986.18
2018-03-07T00:03:44.232Z,986.2
2018-03-07T00:04:10.327Z,986.16
2018-03-07T00:04:36.425Z,986.18
2018-03-07T00:05:02.530Z,986.16
2018-03-07T00:05:28.633Z,986.2
2018-03-07T00:05:54.729Z,986.18
2018-03-07T00:06:20.837Z,986.18
2018-03-07T00:06:46.929Z,986.19
2018-03-07T00:07:13.032Z,986.17
2018-03-07T00:07:39.128Z,986.19
2018-03-07T00:08:05.233Z,986.2
2018-03-07T00:08:31.330Z,986.16
2018-03-07T00:08:57.430Z,986.22
2018-03-07T00:09:23.529Z,986.19
2018-03-07T00:09:49.631Z,986.24
2018-03-07T00:10:15.733Z,986.23
2018-03-07T00:10:41.837Z,986.25
2018-03-07T00:11:07.939Z,986.23
2018-03-07T00:11:34.046Z,986.2
2018-03-07T00:12:00.172Z,986.22
2018-03-07T00:12:26.260Z,986.21
2018-03-07T00:12:52.360Z,986.22
2018-03-07T00:13:18.465Z,986.24
2018-03-07T00:13:44.583Z,986.2
2018-03-07T00:14:10.683Z,986.21
2018-03-07T00:14:36.780Z,986.18
2018-03-07T00:15:02.904Z,986.19
2018-03-07T00:15:29.025Z,986.19
2018-03-07T00:15:55.128Z,986.17
2018-03-07T00:16:21.243Z,986.18
2018-03-07T00:16:47.350Z,986.2
2018-03-07T00:17:13.454Z,986.19
2018-03-07T00:17:39.556Z,986.16
2018-03-07T00:18:05.652Z,986.17
2018-03-07T00:18:31.757Z,986.19
2018-03-07T00:18:57.861Z,986.18
2018-03-07T00:19:23.987Z,986.19
2018-03-07T00:19:50.078Z,986.2
2018-03-07T00:20:16.201Z,986.2
2018-03-07T00:20:42.300Z,986.2
2018-03-07T00:21:08.401Z,986.17
2018-03-07T00:21:34.505Z,986.19
2018-03-07T00:22:00.601Z,986.23
2018-03-07T00:22:26.724Z,986.21
2018-03-07T00:22:52.827Z,986.17
2018-03-07T00:23:18.925Z,986.22
2018-03-07T00:23:45.046Z,986.18
2018-03-07T00:24:11.146Z,986.22
2018-03-07T00:24:37.250Z,986.21
2018-03-07T00:25:03.349Z,986.22
2018-03-07T00:25:29.467Z,986.22
2018-03-07T00:25:55.575Z,986.21
2018-03-07T00:26:21.707Z,986.24
2018-03-07T00:26:47.810Z,986.24
2018-03-07T00:27:13.911Z,986.21
2018-03-07T00:27:40.018Z,986.22
2018-03-07T00:28:06.119Z,986.24
2018-03-07T00:28:32.220Z,986.26
2018-03-07T00:28:58.326Z,986.23
2018-03-07T00:29:24.424Z,986.25
2018-03-07T00:29:50.529Z,986.25
2018-03-07T00:30:16.630Z,986.22
2018-03-07T00:30:42.738Z,986.22
2018-03-07T00:31:08.855Z,986.21
2018-03-07T00:31:34.953Z,986.21
2018-03-07T00:32:01.053Z,986.21
2018-03-07T00:32:27.176Z,986.2
2018-03-07T00:32:53.271Z,986.24
2018-03-07T00:33:19.375Z,986.23
2018-03-07T00:33:45.476Z,986.19
2018-03-07T00:34:11.580Z,986.2
2018-03-07T00:34:37.689Z,986.18
2018-03-07T00:35:03.802Z,986.18
2018-03-07T00:35:29.906Z,986.2
2018-03-07T00:35:56.013Z,986.18
2018-03-07T00:36:22.113Z,986.21
2018-03-07T00:36:48.221Z,986.17
2018-03-07T00:37:14.329Z,986.22
2018-03-07T00:37:40.428Z,986.18
2018-03-07T00:38:06.531Z,986.21
2018-03-07T00:38:32.634Z,986.18
2018-03-07T00:38:58.730Z,986.17
2018-03-07T00:39:24.840Z,986.18
2018-03-07T00:39:50.936Z,986.19
2018-03-07T00:40:17.044Z,986.18
2018-03-07T00:40:43.147Z,986.14
2018-03-07T00:41:09.252Z,986.14
2018-03-07T00:41:35.351Z,986.17
2018-03-07T00:42:01.445Z,986.15
2018-03-07T00:42:27.546Z,986.16
2018-03-07T00:42:53.647Z,986.16
2018-03-07T00:43:19.742Z,986.14
2018-03-07T00:43:45.849Z,986.13
2018-03-07T00:44:11.946Z,986.13
2018-03-07T00:44:38.043Z,986.16
2018-03-07T00:45:04.148Z,986.17
2018-03-07T00:45:30.246Z,986.16
2018-03-07T00:45:56.391Z,986.14
2018-03-07T00:46:22.466Z,986.16
2018-03-07T00:46:48.575Z,986.18
2018-03-07T00:47:14.678Z,986.18
2018-03-07T00:47:40.776Z,986.14
2018-03-07T00:48:06.868Z,986.17
2018-03-07T00:48:32.972Z,986.15
2018-03-07T00:48:59.068Z,986.16
2018-03-07T00:49:25.172Z,986.15
2018-03-07T00:49:51.294Z,986.17
2018-03-07T00:50:17.390Z,986.16
2018-03-07T00:50:43.492Z,986.17
2018-03-07T00:51:09.594Z,986.15
2018-03-07T00:51:35.697Z,986.18
2018-03-07T00:52:01.797Z,986.16
2018-03-07T00:52:27.892Z,986.16
2018-03-07T00:52:53.996Z,986.16
2018-03-07T00:53:20.101Z,986.14
2018-03-07T00:53:46.196Z,986.16
2018-03-07T00:54:12.303Z,986.19
2018-03-07T00:54:38.405Z,986.15
2018-03-07T00:55:04.510Z,986.16
2018-03-07T00:55:30.627Z,986.16
2018-03-07T00:55:56.738Z,986.17
2018-03-07T00:56:22.837Z,986.19
2018-03-07T00:56:48.935Z,986.2
2018-03-07T00:57:15.049Z,986.21
2018-03-07T00:57:41.148Z,986.2
2018-03-07T00:58:07.252Z,986.2
2018-03-07T00:58:33.377Z,986.19
2018-03-07T00:58:59.474Z,986.16
2018-03-07T00:59:25.574Z,986.15
2018-03-07T00:59:51.684Z,986.21
2018-03-07T01:00:17.786Z,986.2
2018-03-07T01:00:43.881Z,986.18
2018-03-07T01:01:09.987Z,986.16
2018-03-07T01:01:36.083Z,986.19
2018-03-07T01:02:02.182Z,986.16
2018-03-07T01:02:28.293Z,986.17
2018-03-07T01:02:54.406Z,986.19
2018-03-07T01:03:20.505Z,986.19
2018-03-07T01:03:46.613Z,986.17
2018-03-07T01:04:12.712Z,986.16
2018-03-07T01:04:38.814Z,986.23
2018-03-07T01:05:04.917Z,986.2
2018-03-07T01:05:31.014Z,986.2
2018-03-07T01:05:57.125Z,986.2
2018-03-07T01:06:23.234Z,986.2
2018-03-07T01:06:49.327Z,986.2
2018-03-07T01:07:15.431Z,986.2
2018-03-07T01:07:41.525Z,986.19
2018-03-07T01:08:07.632Z,986.2
2018-03-07T01:08:33.725Z,986.21
2018-03-07T01:08:59.831Z,986.22
2018-03-07T01:09:25.931Z,986.24
2018-03-07T01:09:52.036Z,986.2
2018-03-07T01:10:18.139Z,986.22
2018-03-07T01:10:44.232Z,986.22
2018-03-07T01:11:10.339Z,986.22
2018-03-07T01:11:36.436Z,986.22
2018-03-07T01:12:02.546Z,986.19
2018-03-07T01:12:28.643Z,986.24
2018-03-07T01:12:54.747Z,986.2
2018-03-07T01:13:20.844Z,986.24
2018-03-07T01:13:46.968Z,986.22
2018-03-07T01:14:13.071Z,986.2
2018-03-07T01:14:39.171Z,986.26
2018-03-07T01:15:05.273Z,986.24
2018-03-07T01:15:31.374Z,986.22
2018-03-07T01:15:57.473Z,986.2
2018-03-07T01:16:23.577Z,986.21
2018-03-07T01:16:49.678Z,986.2
2018-03-07T01:17:15.778Z,986.22
2018-03-07T01:17:41.882Z,986.22
2018-03-07T01:18:07.980Z,986.26
2018-03-07T01:18:34.082Z,986.19
2018-03-07T01:19:00.182Z,986.23
2018-03-07T01:19:26.291Z,986.23
2018-03-07T01:19:52.407Z,986.24
2018-03-07T01:20:18.522Z,986.24
2018-03-07T01:20:44.629Z,986.24
2018-03-07T01:21:10.726Z,986.24
2018-03-07T01:21:36.848Z,986.24
2018-03-07T01:22:02.949Z,986.25
2018-03-07T01:22:29.054Z,986.26
2018-03-07T01:22:55.150Z,986.25
2018-03-07T01:23:21.273Z,986.24
2018-03-07T01:23:47.394Z,986.22
2018-03-07T01:24:13.491Z,986.23
2018-03-07T01:24:39.603Z,986.24
2018-03-07T01:25:05.698Z,986.27
2018-03-07T01:25:31.802Z,986.27
2018-03-07T01:25:57.904Z,986.23
2018-03-07T01:26:23.995Z,986.25
2018-03-07T01:26:50.101Z,986.25
2018-03-07T01:27:16.214Z,986.22
2018-03-07T01:27:42.316Z,986.26
2018-03-07T01:28:08.442Z,986.27
2018-03-07T01:28:34.541Z,986.27
2018-03-07T01:29:00.642Z,986.25
2018-03-07T01:29:26.757Z,986.27
2018-03-07T01:29:52.879Z,986.24
2018-03-07T01:30:18.991Z,986.27
2018-03-07T01:30:45.110Z,986.26
2018-03-07T01:31:11.216Z,986.26
2018-03-07T01:31:37.315Z,986.27
2018-03-07T01:32:03.414Z,986.26
2018-03-07T01:32:29.516Z,986.25
2018-03-07T01:32:55.610Z,986.26
2018-03-07T01:33:21.719Z,986.27
2018-03-07T01:33:47.823Z,986.26
2018-03-07T01:34:13.931Z,986.28
2018-03-07T01:34:40.026Z,986.26
2018-03-07T01:35:06.128Z,986.25
2018-03-07T01:35:32.224Z,986.27
2018-03-07T01:35:58.324Z,986.23
2018-03-07T01:36:24.430Z,986.26
2018-03-07T01:36:50.533Z,986.22
2018-03-07T01:37:16.628Z,986.26
2018-03-07T01:37:42.747Z,986.24
2018-03-07T01:38:08.854Z,986.26
2018-03-07T01:38:34.960Z,986.24
2018-03-07T01:39:01.058Z,986.22
2018-03-07T01:39:27.179Z,986.25
2018-03-07T01:39:53.274Z,986.22
2018-03-07T01:40:19.391Z,986.24
2018-03-07T01:40:45.500Z,986.24
2018-03-07T01:41:11.610Z,986.23
2018-03-07T01:41:37.731Z,986.24
2018-03-07T01:42:07.511Z,986.26
2018-03-07T01:42:33.735Z,986.23
2018-03-07T01:42:59.871Z,986.26
2018-03-07T01:43:26.022Z,986.24
2018-03-07T01:43:52.158Z,986.24
2018-03-07T01:44:18.294Z,986.2
2018-03-07T01:44:44.424Z,986.22
2018-03-07T01:45:10.565Z,986.18
2018-03-07T01:45:36.700Z,986.22
2018-03-07T01:46:02.828Z,986.2
2018-03-07T01:46:28.986Z,986.2
2018-03-07T01:46:55.123Z,986.22
2018-03-07T01:47:21.261Z,986.19
2018-03-07T01:47:47.413Z,986.22
2018-03-07T01:48:13.566Z,986.2
2018-03-07T01:48:39.703Z,986.2
2018-03-07T01:49:05.833Z,986.22
2018-03-07T01:49:31.991Z,986.2
2018-03-07T01:49:58.146Z,986.2
2018-03-07T01:50:24.286Z,986.19
2018-03-07T01:50:50.421Z,986.19
2018-03-07T01:51:16.556Z,986.19
2018-03-07T01:51:42.692Z,986.19
2018-03-07T01:52:08.828Z,986.18
2018-03-07T01:52:34.963Z,986.15
2018-03-07T01:53:01.103Z,986.16
2018-03-07T01:53:27.230Z,986.13
2018-03-07T01:53:53.361Z,986.18
2018-03-07T01:54:19.499Z,986.13
2018-03-07T01:54:45.628Z,986.15
2018-03-07T01:55:11.770Z,986.12
2018-03-07T01:55:37.899Z,986.09
2018-03-07T01:56:04.036Z,986.09
2018-03-07T01:56:30.170Z,986.09
2018-03-07T01:56:56.304Z,986.11
2018-03-07T01:57:22.446Z,986.1
2018-03-07T01:57:48.577Z,986.1
2018-03-07T01:58:14.714Z,986.12
2018-03-07T01:58:40.844Z,986.09
2018-03-07T01:59:06.983Z,986.09
2018-03-07T01:59:33.121Z,986.12
2018-03-07T01:59:59.250Z,986.11
2018-03-07T02:00:25.381Z,986.08
2018-03-07T02:00:51.522Z,986.08
2018-03-07T02:01:17.657Z,986.05
2018-03-07T02:01:43.808Z,986.04
2018-03-07T02:02:09.963Z,986.04
2018-03-07T02:02:36.119Z,986.04
2018-03-07T02:03:02.257Z,986.06
2018-03-07T02:03:28.385Z,986.07
2018-03-07T02:03:54.524Z,986.03
2018-03-07T02:04:20.659Z,986.05
2018-03-07T02:04:46.789Z,986.02
2018-03-07T02:05:12.951Z,986
2018-03-07T02:05:39.082Z,986
2018-03-07T02:06:05.260Z,985.98
2018-03-07T02:06:31.388Z,986
2018-03-07T02:06:57.528Z,986.01
2018-03-07T02:07:23.661Z,986.01
2018-03-07T02:07:49.800Z,986.01
2018-03-07T02:08:15.932Z,986.03
2018-03-07T02:08:42.062Z,985.97
2018-03-07T02:09:08.202Z,985.99
2018-03-07T02:09:34.330Z,985.95
2018-03-07T02:10:00.466Z,986.01
2018-03-07T02:10:26.599Z,986.02
2018-03-07T02:10:52.739Z,985.98
2018-03-07T02:11:18.874Z,985.99
2018-03-07T02:11:45.012Z,985.99
2018-03-07T02:12:11.193Z,985.95
2018-03-07T02:12:37.323Z,985.98
2018-03-07T02:13:03.458Z,985.99
2018-03-07T02:13:29.588Z,986.02
2018-03-07T02:13:55.725Z,985.96
2018-03-07T02:14:21.870Z,985.97
2018-03-07T02:14:48.022Z,985.97
2018-03-07T02:15:14.184Z,986
2018-03-07T02:15:40.320Z,985.96
2018-03-07T02:16:06.484Z,985.95
2018-03-07T02:16:32.613Z,985.91
2018-03-07T02:16:58.747Z,985.96
2018-03-07T02:17:24.885Z,985.96
2018-03-07T02:17:51.016Z,985.97
2018-03-07T02:18:17.146Z,985.96
2018-03-07T02:18:43.305Z,985.98
2018-03-07T02:19:09.441Z,985.97
2018-03-07T02:19:35.574Z,986.01
2018-03-07T02:20:01.706Z,985.98
2018-03-07T02:20:27.846Z,985.96
2018-03-07T02:20:53.976Z,985.98
2018-03-07T02:21:20.108Z,985.92
2018-03-07T02:21:46.247Z,985.96
2018-03-07T02:22:12.385Z,985.97
2018-03-07T02:22:38.541Z,985.97
2018-03-07T02:23:04.693Z,985.95
2018-03-07T02:23:30.832Z,985.93
2018-03-07T02:23:56.962Z,985.96
2018-03-07T02:24:23.099Z,985.93
2018-03-07T02:24:49.231Z,985.95
2018-03-07T02:25:15.368Z,985.94
2018-03-07T02:25:41.508Z,985.93
2018-03-07T02:26:07.639Z,985.97
2018-03-07T02:26:33.778Z,985.95
2018-03-07T02:26:59.906Z,985.98
2018-03-07T02:27:26.067Z,985.99
2018-03-07T02:27:52.197Z,985.93
2018-03-07T02:28:18.332Z,985.98
2018-03-07T02:28:44.481Z,985.94
2018-03-07T02:29:10.607Z,985.98
2018-03-07T02:29:36.736Z,986
2018-03-07T02:30:02.874Z,985.94
2018-03-07T02:30:29.007Z,985.98
2018-03-07T02:30:55.141Z,985.99
2018-03-07T02:31:21.282Z,985.97
2018-03-07T02:31:47.417Z,985.95
2018-03-07T02:32:13.567Z,985.95
2018-03-07T02:32:39.704Z,985.98
2018-03-07T02:33:05.887Z,985.94
2018-03-07T02:33:32.017Z,985.96
2018-03-07T02:33:58.151Z,985.95
2018-03-07T02:34:24.311Z,985.95
2018-03-07T02:34:50.462Z,985.97
2018-03-07T02:35:16.586Z,985.95
2018-03-07T02:35:42.742Z,985.93
2018-03-07T02:36:08.876Z,985.94
2018-03-07T02:36:35.055Z,985.9
2018-03-07T02:37:01.194Z,985.94
2018-03-07T02:37:27.327Z,985.96
2018-03-07T02:37:53.457Z,985.94
2018-03-07T02:38:19.612Z,985.96
2018-03-07T02:38:45.746Z,985.94
2018-03-07T02:39:11.884Z,985.94
2018-03-07T02:39:38.019Z,985.94
2018-03-07T02:40:04.154Z,985.92
2018-03-07T02:40:30.293Z,985.93
2018-03-07T02:40:56.426Z,985.91
2018-03-07T02:41:22.576Z,985.92
2018-03-07T02:41:48.738Z,985.91
2018-03-07T02:42:14.885Z,985.96
2018-03-07T02:42:41.030Z,985.95
2018-03-07T02:43:07.167Z,985.92
2018-03-07T02:43:33.296Z,985.92
2018-03-07T02:43:59.460Z,985.95
2018-03-07T02:44:25.592Z,985.91
2018-03-07T02:44:51.729Z,985.91
2018-03-07T02:45:17.894Z,985.92
2018-03-07T02:45:44.002Z,985.9
2018-03-07T02:46:10.132Z,985.9
2018-03-07T02:46:36.266Z,985.91
2018-03-07T02:47:02.403Z,985.9
2018-03-07T02:47:28.533Z,985.92
2018-03-07T02:47:54.689Z,985.91
2018-03-07T02:48:20.816Z,985.89
2018-03-07T02:48:46.942Z,985.9
2018-03-07T02:49:13.078Z,985.92
2018-03-07T02:49:39.216Z,985.9
2018-03-07T02:50:05.370Z,985.92
2018-03-07T02:50:31.504Z,985.91
2018-03-07T02:50:57.644Z,985.9
2018-03-07T02:51:23.772Z,985.9
2018-03-07T02:51:49.910Z,985.89
2018-03-07T02:52:16.040Z,985.89
2018-03-07T02:52:42.171Z,985.86
2018-03-07T02:53:08.306Z,985.9
2018-03-07T02:53:34.462Z,985.92
2018-03-07T02:54:00.600Z,985.91
2018-03-07T02:54:26.736Z,985.91
2018-03-07T02:54:52.891Z,985.87
2018-03-07T02:55:19.031Z,985.88
2018-03-07T02:55:45.163Z,985.88
2018-03-07T02:56:11.303Z,985.91
2018-03-07T02:56:37.452Z,985.89
2018-03-07T02:57:03.586Z,985.89
2018-03-07T02:57:29.724Z,985.87
2018-03-07T02:57:55.857Z,985.9
2018-03-07T02:58:21.992Z,985.91
2018-03-07T02:58:48.135Z,985.9
2018-03-07T02:59:14.267Z,985.91
2018-03-07T02:59:40.407Z,985.9
2018-03-07T03:00:06.538Z,985.89
2018-03-07T03:00:32.672Z,985.93
2018-03-07T03:00:58.830Z,985.93
2018-03-07T03:01:24.968Z,985.92
2018-03-07T03:01:51.095Z,985.94
2018-03-07T03:02:17.233Z,985.9
2018-03-07T03:02:43.379Z,985.92
2018-03-07T03:03:09.504Z,985.91
2018-03-07T03:03:35.630Z,985.93
2018-03-07T03:04:01.782Z,985.93
2018-03-07T03:04:27.943Z,985.94
2018-03-07T03:04:54.091Z,985.96
2018-03-07T03:05:20.230Z,985.93
2018-03-07T03:05:46.365Z,985.96
2018-03-07T03:06:12.495Z,985.95
2018-03-07T03:06:38.633Z,985.97
2018-03-07T03:07:04.768Z,985.99
2018-03-07T03:07:30.929Z,985.99
2018-03-07T03:07:57.088Z,985.99
2018-03-07T03:08:23.218Z,985.99
2018-03-07T03:08:49.357Z,985.97
2018-03-07T03:09:15.518Z,985.96
2018-03-07T03:09:41.670Z,985.98
2018-03-07T03:10:07.840Z,985.98
2018-03-07T03:10:33.964Z,985.99
2018-03-07T03:11:00.103Z,986.02
2018-03-07T03:11:26.234Z,986
2018-03-07T03:11:52.370Z,986
2018-03-07T03:12:18.506Z,985.99
2018-03-07T03:12:44.640Z,986.02
2018-03-07T03:13:10.774Z,985.99
2018-03-07T03:13:36.906Z,986.02
2018-03-07T03:14:03.041Z,986
2018-03-07T03:14:29.197Z,985.99
2018-03-07T03:14:55.335Z,986.01
2018-03-07T03:15:21.471Z,986.02
2018-03-07T03:15:47.604Z,986.03
2018-03-07T03:16:13.731Z,986.02
2018-03-07T03:16:39.866Z,986.01
2018-03-07T03:17:06.007Z,985.98
2018-03-07T03:17:32.140Z,986.02
2018-03-07T03:17:58.293Z,985.97
2018-03-07T03:18:24.426Z,986.03
2018-03-07T03:18:50.560Z,986.03
2018-03-07T03:19:16.696Z,986.05
2018-03-07T03:19:42.836Z,986.02
2018-03-07T03:20:08.970Z,986
2018-03-07T03:20:35.113Z,985.98
2018-03-07T03:21:01.240Z,986.02
2018-03-07T03:21:27.376Z,986.02
2018-03-07T03:21:53.508Z,986
2018-03-07T03:22:19.640Z,985.98
2018-03-07T03:22:45.767Z,985.99
2018-03-07T03:23:11.907Z,986.02
2018-03-07T03:23:38.046Z,985.98
2018-03-07T03:24:04.179Z,985.95
2018-03-07T03:24:30.319Z,985.96
2018-03-07T03:24:56.450Z,985.94
2018-03-07T03:25:22.607Z,985.96
2018-03-07T03:25:48.763Z,985.93
2018-03-07T03:26:14.897Z,985.94
2018-03-07T03:26:41.032Z,985.97
2018-03-07T03:27:07.233Z,985.93
2018-03-07T03:27:33.324Z,985.9
2018-03-07T03:27:59.487Z,985.92
2018-03-07T03:28:25.619Z,985.92
2018-03-07T03:28:51.756Z,985.93
2018-03-07T03:29:17.891Z,985.9
2018-03-07T03:29:44.106Z,985.93
2018-03-07T03:30:10.277Z,985.99
2018-03-07T03:30:36.407Z,985.92
2018-03-07T03:31:02.542Z,985.95
2018-03-07T03:31:28.674Z,985.98
2018-03-07T03:31:54.830Z,985.97
2018-03-07T03:32:20.961Z,985.96
2018-03-07T03:32:47.095Z,986
2018-03-07T03:33:13.232Z,985.98
2018-03-07T03:33:39.370Z,986.04
2018-03-07T03:34:05.503Z,986.06
2018-03-07T03:34:31.661Z,986.06
2018-03-07T03:34:57.793Z,986.05
2018-03-07T03:35:23.922Z,986.09
2018-03-07T03:35:50.058Z,986.11
2018-03-07T03:36:16.195Z,986.11
2018-03-07T03:36:42.353Z,986.08
2018-03-07T03:37:08.495Z,986.12
2018-03-07T03:37:34.623Z,986.12
2018-03-07T03:38:00.756Z,986.11
2018-03-07T03:38:26.916Z,986.09
2018-03-07T03:38:53.055Z,986.05
2018-03-07T03:39:19.183Z,986.13
2018-03-07T03:39:45.320Z,986.1
2018-03-07T03:40:11.455Z,986.09
2018-03-07T03:40:37.586Z,986.13
2018-03-07T03:41:03.723Z,986.15
2018-03-07T03:41:29.860Z,986.15
2018-03-07T03:41:56.011Z,986.12
2018-03-07T03:42:22.167Z,986.15
2018-03-07T03:42:48.330Z,986.14
2018-03-07T03:43:14.488Z,986.13
2018-03-07T03:43:40.648Z,986.13
2018-03-07T03:44:06.783Z,986.12
2018-03-07T03:44:32.913Z,986.17
2018-03-07T03:44:59.053Z,986.13
2018-03-07T03:45:25.185Z,986.15
2018-03-07T03:45:51.315Z,986.13
2018-03-07T03:46:17.476Z,986.17
2018-03-07T03:46:43.637Z,986.12
2018-03-07T03:47:09.764Z,986.14
2018-03-07T03:47:35.899Z,986.19
2018-03-07T03:48:02.039Z,986.17
2018-03-07T03:48:28.166Z,986.19
2018-03-07T03:48:54.305Z,986.2
2018-03-07T03:49:20.450Z,986.18
2018-03-07T03:49:46.584Z,986.19
2018-03-07T03:50:12.714Z,986.19
2018-03-07T03:50:38.846Z,986.19
2018-03-07T03:51:05.000Z,986.16
2018-03-07T03:51:31.144Z,986.16
2018-03-07T03:51:57.297Z,986.11
2018-03-07T03:52:23.431Z,986.16
2018-03-07T03:52:49.587Z,986.15
2018-03-07T03:53:15.722Z,986.15
2018-03-07T03:53:41.854Z,986.14
2018-03-07T03:54:08.014Z,986.12
2018-03-07T03:54:34.148Z,986.14
2018-03-07T03:55:00.307Z,986.1
2018-03-07T03:55:26.439Z,986.14
2018-03-07T03:55:52.568Z,986.15
2018-03-07T03:56:18.704Z,986.15
2018-03-07T03:56:44.840Z,986.1
2018-03-07T03:57:10.978Z,986.16
2018-03-07T03:57:37.109Z,986.11
2018-03-07T03:58:03.242Z,986.15
2018-03-07T03:58:29.381Z,986.14
2018-03-07T03:58:55.512Z,986.11
2018-03-07T03:59:21.648Z,986.15
2018-03-07T03:59:47.783Z,986.12
2018-03-07T04:00:13.912Z,986.15
2018-03-07T04:00:40.052Z,986.13
2018-03-07T04:01:06.182Z,986.16
2018-03-07T04:01:32.338Z,986.13
2018-03-07T04:01:58.477Z,986.15
2018-03-07T04:02:24.609Z,986.18
2018-03-07T04:02:50.764Z,986.17
2018-03-07T04:03:16.918Z,986.13
2018-03-07T04:03:43.055Z,986.16
2018-03-07T04:04:09.194Z,986.16
2018-03-07T04:04:35.323Z,986.13
2018-03-07T04:05:01.465Z,986.14
2018-03-07T04:05:27.595Z,986.12
2018-03-07T04:05:53.733Z,986.13
2018-03-07T04:06:19.861Z,986.13
2018-03-07T04:06:45.992Z,986.17
2018-03-07T04:07:12.130Z,986.15
2018-03-07T04:07:38.261Z,986.19
2018-03-07T04:08:04.399Z,986.17
2018-03-07T04:08:30.532Z,986.16
2018-03-07T04:08:56.684Z,986.18
2018-03-07T04:09:22.799Z,986.17
2018-03-07T04:09:48.930Z,986.2
2018-03-07T04:10:15.068Z,986.17
2018-03-07T04:10:41.225Z,986.2
2018-03-07T04:11:07.355Z,986.22
2018-03-07T04:11:33.494Z,986.18
2018-03-07T04:11:59.634Z,986.21
2018-03-07T04:12:25.762Z,986.24
2018-03-07T04:12:51.894Z,986.22
2018-03-07T04:13:18.034Z,986.21
2018-03-07T04:13:44.168Z,986.19
2018-03-07T04:14:10.321Z,986.21
2018-03-07T04:14:36.455Z,986.23
2018-03-07T04:15:02.584Z,986.23
2018-03-07T04:15:28.722Z,986.22
2018-03-07T04:15:54.853Z,986.21
2018-03-07T04:16:20.999Z,986.2
2018-03-07T04:16:47.131Z,986.25
2018-03-07T04:17:13.272Z,986.22
2018-03-07T04:17:39.401Z,986.21
2018-03-07T04:18:05.535Z,986.2
2018-03-07T04:18:31.674Z,986.23
2018-03-07T04:18:57.805Z,986.2
2018-03-07T04:19:23.963Z,986.22
2018-03-07T04:19:50.100Z,986.19
2018-03-07T04:20:16.234Z,986.2
2018-03-07T04:20:42.360Z,986.22
2018-03-07T04:21:08.550Z,986.22
2018-03-07T04:21:34.689Z,986.21
2018-03-07T04:22:00.828Z,986.22
2018-03-07T04:22:26.964Z,986.22
2018-03-07T04:22:53.123Z,986.23
2018-03-07T04:23:19.258Z,986.22
2018-03-07T04:23:45.387Z,986.27
2018-03-07T04:24:11.525Z,986.25
2018-03-07T04:24:37.658Z,986.25
2018-03-07T04:25:03.788Z,986.26
2018-03-07T04:25:29.957Z,986.25
2018-03-07T04:25:56.080Z,986.27
2018-03-07T04:26:22.233Z,986.26
2018-03-07T04:26:48.353Z,986.22
2018-03-07T04:27:14.485Z,986.28
2018-03-07T04:27:40.619Z,986.27
2018-03-07T04:28:06.752Z,986.26
2018-03-07T04:28:32.888Z,986.25
2018-03-07T04:28:59.018Z,986.29
2018-03-07T04:29:25.160Z,986.24
2018-03-07T04:29:51.283Z,986.25
2018-03-07T04:30:17.421Z,986.25
2018-03-07T04:30:43.575Z,986.23
2018-03-07T04:31:09.709Z,986.23
2018-03-07T04:31:35.845Z,986.25
2018-03-07T04:32:01.998Z,986.25
2018-03-07T04:32:28.111Z,986.25
2018-03-07T04:32:54.242Z,986.27
2018-03-07T04:33:20.381Z,986.27
2018-03-07T04:33:46.511Z,986.26
2018-03-07T04:34:12.674Z,986.29
2018-03-07T04:34:38.810Z,986.25
2018-03-07T04:35:04.939Z,986.3
2018-03-07T04:35:31.068Z,986.32
2018-03-07T04:35:57.206Z,986.36
2018-03-07T04:36:23.341Z,986.31
2018-03-07T04:36:49.482Z,986.36
2018-03-07T04:37:15.614Z,986.36
2018-03-07T04:37:41.756Z,986.37
2018-03-07T04:38:07.882Z,986.37
2018-03-07T04:38:34.023Z,986.39
2018-03-07T04:39:00.151Z,986.37
2018-03-07T04:39:26.291Z,986.39
2018-03-07T04:39:52.426Z,986.36
2018-03-07T04:40:18.556Z,986.38
2018-03-07T04:40:44.709Z,986.4
2018-03-07T04:41:10.820Z,986.39
2018-03-07T04:41:36.981Z,986.41
2018-03-07T04:42:03.118Z,986.41
2018-03-07T04:42:29.250Z,986.39
2018-03-07T04:42:55.385Z,986.4
2018-03-07T04:43:21.525Z,986.42
2018-03-07T04:43:47.651Z,986.43
2018-03-07T04:44:13.780Z,986.41
2018-03-07T04:44:39.919Z,986.4
2018-03-07T04:45:06.055Z,986.39
2018-03-07T04:45:32.192Z,986.4
2018-03-07T04:45:58.327Z,986.4
2018-03-07T04:46:24.457Z,986.41
2018-03-07T04:46:50.590Z,986.43
2018-03-07T04:47:16.725Z,986.42
2018-03-07T04:47:42.855Z,986.39
2018-03-07T04:48:08.994Z,986.41
2018-03-07T04:48:35.125Z,986.42
2018-03-07T04:49:01.257Z,986.43
2018-03-07T04:49:27.400Z,986.42
2018-03-07T04:49:53.522Z,986.41
2018-03-07T04:50:19.659Z,986.4
2018-03-07T04:50:45.796Z,986.39
2018-03-07T04:51:11.933Z,986.4
2018-03-07T04:51:38.065Z,986.4
2018-03-07T04:52:04.196Z,986.41
2018-03-07T04:52:30.330Z,986.4
2018-03-07T04:52:56.462Z,986.4
2018-03-07T04:53:22.600Z,986.44
2018-03-07T04:53:48.734Z,986.39
2018-03-07T04:54:14.866Z,986.4
2018-03-07T04:54:41.006Z,986.42
2018-03-07T04:55:07.139Z,986.41
2018-03-07T04:55:33.267Z,986.44
2018-03-07T04:55:59.428Z,986.44
2018-03-07T04:56:25.557Z,986.43
2018-03-07T04:56:51.697Z,986.42
2018-03-07T04:57:17.834Z,986.46
2018-03-07T04:57:43.960Z,986.45
2018-03-07T04:58:10.091Z,986.44
2018-03-07T04:58:36.272Z,986.48
2018-03-07T04:59:02.405Z,986.48
2018-03-07T04:59:28.564Z,986.44
2018-03-07T04:59:54.698Z,986.46
2018-03-07T05:00:20.831Z,986.45
2018-03-07T05:00:46.994Z,986.46
2018-03-07T05:01:13.125Z,986.46
2018-03-07T05:01:39.266Z,986.46
2018-03-07T05:02:05.420Z,986.48
2018-03-07T05:02:31.581Z,986.48
2018-03-07T05:02:57.716Z,986.48
2018-03-07T05:03:23.851Z,986.48
2018-03-07T05:03:49.984Z,986.46
2018-03-07T05:04:16.114Z,986.49
2018-03-07T05:04:42.256Z,986.49
2018-03-07T05:05:08.393Z,986.49
2018-03-07T05:05:34.521Z,986.48
2018-03-07T05:06:00.651Z,986.47
2018-03-07T05:06:26.789Z,986.48
2018-03-07T05:06:52.926Z,986.46
2018-03-07T05:07:19.089Z,986.5
2018-03-07T05:07:45.220Z,986.47
2018-03-07T05:08:11.357Z,986.48
2018-03-07T05:08:37.487Z,986.46
2018-03-07T05:09:03.627Z,986.46
2018-03-07T05:09:29.765Z,986.43
2018-03-07T05:09:55.895Z,986.46
2018-03-07T05:10:22.052Z,986.44
2018-03-07T05:10:48.195Z,986.43
2018-03-07T05:11:14.327Z,986.47
2018-03-07T05:11:40.463Z,986.48
2018-03-07T05:12:06.664Z,986.49
2018-03-07T05:12:32.795Z,986.46
2018-03-07T05:12:58.950Z,986.49
2018-03-07T05:13:25.114Z,986.46
2018-03-07T05:13:51.253Z,986.41
2018-03-07T05:14:17.383Z,986.43
2018-03-07T05:14:43.527Z,986.45
2018-03-07T05:15:09.676Z,986.47
2018-03-07T05:15:35.810Z,986.47
2018-03-07T05:16:01.949Z,986.44
2018-03-07T05:16:28.085Z,986.49
2018-03-07T05:16:54.218Z,986.47
2018-03-07T05:17:20.353Z,986.45
2018-03-07T05:17:46.485Z,986.46
2018-03-07T05:18:12.618Z,986.45
2018-03-07T05:18:38.757Z,986.47
2018-03-07T05:19:04.893Z,986.48
2018-03-07T05:19:31.026Z,986.47
2018-03-07T05:19:57.163Z,986.53
2018-03-07T05:20:23.295Z,986.53
2018-03-07T05:20:49.423Z,986.48
2018-03-07T05:21:15.577Z,986.48
2018-03-07T05:21:41.710Z,986.5
2018-03-07T05:22:07.842Z,986.47
2018-03-07T05:22:33.981Z,986.52
2018-03-07T05:23:00.114Z,986.5
2018-03-07T05:23:26.246Z,986.52
2018-03-07T05:23:52.383Z,986.53
2018-03-07T05:24:18.522Z,986.5
2018-03-07T05:24:44.651Z,986.53
2018-03-07T05:25:10.788Z,986.53
2018-03-07T05:25:36.913Z,986.52
2018-03-07T05:26:03.047Z,986.56
2018-03-07T05:26:29.188Z,986.52
2018-03-07T05:26:55.319Z,986.51
2018-03-07T05:27:21.450Z,986.5
2018-03-07T05:27:47.588Z,986.52